createdAt,value
2022-08-14T00:04:32.162Z,101695.25
2022-08-14T00:09:29.354Z,101681.63
2022-08-14T00:14:37.164Z,101689.62
2022-08-14T00:19:45.511Z,101691.25
2022-08-14T00:24:49.023Z,101682.09
2022-08-14T00:35:16.759Z,101672.38
2022-08-14T00:40:27.353Z,101673.16
2022-08-14T00:45:36.640Z,101675.03
2022-08-14T00:50:53.465Z,101667.22
2022-08-14T01:01:23.259Z,101664.47
2022-08-14T01:06:30.093Z,101657.75
2022-08-14T01:11:45.147Z,101656.56
2022-08-14T01:17:08.917Z,101652.62
2022-08-14T01:22:19.381Z,101662.56
2022-08-14T01:27:24.989Z,101655.28
2022-08-14T01:32:29.879Z,101655.25
2022-08-14T01:37:44.269Z,101654.94
2022-08-14T01:42:47.384Z,101653.50
2022-08-14T01:47:50.382Z,101649.00
2022-08-14T01:58:28.767Z,101642.63
2022-08-14T02:03:34.165Z,101636.41
2022-08-14T02:08:52.561Z,101638.03
2022-08-14T02:14:14.348Z,101642.41
2022-08-14T02:24:45.163Z,101637.41
2022-08-14T02:29:59.545Z,101636.69
2022-08-14T02:35:06.164Z,101630.22
2022-08-14T02:40:20.018Z,101633.78
2022-08-14T02:45:22.836Z,101633.44
2022-08-14T02:50:28.909Z,101637.81
2022-08-14T03:01:03.366Z,101639.16
2022-08-14T03:06:20.425Z,101633.28
2022-08-14T03:17:00.275Z,101624.09
2022-08-14T03:22:17.623Z,101623.13
2022-08-14T03:27:26.564Z,101616.69
2022-08-14T03:32:44.376Z,101614.44
2022-08-14T03:39:09.334Z,101606.97
2022-08-14T03:43:12.110Z,101601.12
2022-08-14T03:48:30.934Z,101598.88
2022-08-14T03:53:35.192Z,101598.53
2022-08-14T03:58:42.163Z,101590.16
2022-08-14T04:14:19.166Z,101589.56
2022-08-14T04:19:28.130Z,101589.84
2022-08-14T04:35:23.623Z,101591.34
2022-08-14T04:40:27.747Z,101585.16
2022-08-14T04:45:33.284Z,101590.44
2022-08-14T04:50:44.617Z,101594.62
2022-08-14T04:55:51.465Z,101584.44
2022-08-14T05:00:58.058Z,101586.44
2022-08-14T05:06:38.598Z,101591.78
2022-08-14T05:16:59.242Z,101587.72
2022-08-14T05:22:15.669Z,101581.66
2022-08-14T05:27:23.952Z,101579.00
2022-08-14T05:32:32.314Z,101585.22
2022-08-14T05:42:55.008Z,101575.38
2022-08-14T05:47:59.751Z,101577.69
2022-08-14T05:53:03.468Z,101570.06
2022-08-14T05:58:33.834Z,101554.44
2022-08-14T06:03:45.006Z,101563.09
2022-08-14T06:08:51.588Z,101561.84
2022-08-14T06:14:00.835Z,101550.84
2022-08-14T06:19:06.556Z,101554.25
2022-08-14T06:24:18.677Z,101555.97
2022-08-14T06:29:34.955Z,101556.34
2022-08-14T06:40:00.739Z,101547.47
2022-08-14T06:45:04.554Z,101553.28
2022-08-14T06:50:14.069Z,101547.12
2022-08-14T06:55:28.094Z,101526.16
2022-08-14T07:00:32.244Z,101513.25
2022-08-14T07:05:36.079Z,101515.56
2022-08-14T07:10:48.200Z,101515.72
2022-08-14T07:15:55.088Z,101506.84
2022-08-14T07:21:00.168Z,101507.97
2022-08-14T07:26:10.664Z,101502.69
2022-08-14T07:31:16.318Z,101511.28
2022-08-14T07:36:27.323Z,101509.03
2022-08-14T07:47:03.680Z,101509.44
2022-08-14T07:52:08.939Z,101496.28
2022-08-14T08:02:32.787Z,101489.31
2022-08-14T08:07:39.296Z,101474.59
2022-08-14T08:12:43.445Z,101473.91
2022-08-14T08:18:01.382Z,101476.78
2022-08-14T09:11:19.155Z,101480.31
2022-08-14T09:21:48.253Z,101462.56
2022-08-14T09:26:57.764Z,101471.19
2022-08-14T09:32:57.707Z,101461.78
2022-08-14T09:37:44.213Z,101452.09
2022-08-14T09:42:59.394Z,101452.41
2022-08-14T09:48:03.139Z,101453.78
2022-08-14T09:53:18.774Z,101443.87
2022-08-14T09:58:22.807Z,101439.12
2022-08-14T10:03:34.404Z,101425.75
2022-08-14T10:08:54.906Z,101425.31
2022-08-14T10:14:02.587Z,101421.34
2022-08-14T10:19:16.027Z,101416.94
2022-08-14T10:40:38.742Z,101401.53
2022-08-14T10:45:59.651Z,101395.28
2022-08-14T10:51:09.093Z,101394.94
2022-08-14T11:01:41.919Z,101389.66
2022-08-14T11:06:54.389Z,101378.69
2022-08-14T11:12:34.750Z,101385.06
2022-08-14T11:17:32.031Z,101387.16
2022-08-14T11:22:52.340Z,101378.31
2022-08-14T11:28:00.166Z,101360.28
2022-08-14T11:33:09.746Z,101362.19
2022-08-14T11:38:13.773Z,101355.37
2022-08-14T11:43:22.699Z,101348.16
2022-08-14T11:49:02.643Z,101357.38
2022-08-14T11:54:08.498Z,101344.28
2022-08-14T11:59:18.282Z,101330.06
2022-08-14T12:04:33.411Z,101321.78
2022-08-14T12:09:43.229Z,101329.59
2022-08-14T12:14:51.680Z,101325.66
2022-08-14T12:20:04.868Z,101327.53
2022-08-14T12:25:11.652Z,101316.47
2022-08-14T12:30:21.094Z,101316.62
2022-08-14T12:35:39.609Z,101325.34
2022-08-14T12:40:56.432Z,101311.59
2022-08-14T12:46:00.196Z,101310.66
2022-08-14T12:51:21.691Z,101307.59
2022-08-14T12:56:33.645Z,101291.81
2022-08-14T13:01:59.112Z,101292.06
2022-08-14T13:07:11.099Z,101283.72
2022-08-14T13:12:33.553Z,101281.94
2022-08-14T13:17:46.367Z,101269.59
2022-08-14T13:28:11.410Z,101251.59
2022-08-14T13:33:22.588Z,101254.63
2022-08-14T13:38:26.712Z,101245.72
2022-08-14T13:43:49.249Z,101244.16
2022-08-14T13:49:03.057Z,101225.69
2022-08-14T14:04:49.390Z,101206.03
2022-08-14T14:10:06.445Z,101197.22
2022-08-14T14:15:12.212Z,101196.56
2022-08-14T14:20:35.037Z,101199.84
2022-08-14T14:25:46.389Z,101184.09
2022-08-14T14:30:57.416Z,101171.25
2022-08-14T14:36:13.535Z,101165.97
2022-08-14T14:41:17.395Z,101166.69
2022-08-14T14:46:22.125Z,101159.16
2022-08-14T14:51:51.132Z,101158.09
2022-08-14T15:02:32.373Z,101140.22
2022-08-14T15:07:38.078Z,101144.75
2022-08-14T15:12:57.896Z,101134.16
2022-08-14T15:18:35.818Z,101133.28
2022-08-14T15:23:44.725Z,101134.72
2022-08-14T15:28:48.527Z,101124.81
2022-08-14T15:34:44.430Z,101123.72
2022-08-14T15:39:38.259Z,101121.16
2022-08-14T15:44:57.332Z,101113.16
2022-08-14T15:50:11.038Z,101112.75
2022-08-14T15:55:16.425Z,101102.69
2022-08-14T16:11:07.684Z,101097.41
2022-08-14T16:16:34.524Z,101104.69
2022-08-14T16:27:01.441Z,101090.50
2022-08-14T16:32:32.839Z,101090.25
2022-08-14T16:37:34.238Z,101086.19
2022-08-14T16:43:04.473Z,101084.44
2022-08-14T16:48:54.692Z,101073.25
2022-08-14T16:53:35.743Z,101081.25
2022-08-14T17:04:04.672Z,101060.34
2022-08-14T17:09:28.946Z,101058.22
2022-08-14T17:20:39.791Z,101052.81
2022-08-14T17:36:28.837Z,101044.19
2022-08-14T17:41:36.192Z,101045.84
2022-08-14T17:46:43.934Z,101034.31
2022-08-14T17:52:07.678Z,101036.63
2022-08-14T17:57:15.155Z,101038.75
2022-08-14T18:07:59.993Z,101032.94
2022-08-14T18:13:04.263Z,101037.56
2022-08-14T18:18:16.314Z,101042.28
2022-08-14T18:23:25.836Z,101050.78
2022-08-14T18:28:51.208Z,101060.44
2022-08-14T18:33:56.464Z,101043.94
2022-08-14T18:39:31.225Z,101058.66
2022-08-14T18:45:12.562Z,101060.75
2022-08-14T18:50:27.142Z,101052.75
2022-08-14T18:55:53.981Z,101061.31
2022-08-14T19:01:06.642Z,101065.84
2022-08-14T19:06:11.148Z,101073.75
2022-08-14T19:11:52.776Z,101075.41
2022-08-14T19:16:58.451Z,101070.94
2022-08-14T19:22:12.717Z,101060.00
2022-08-14T19:27:37.499Z,101061.31
2022-08-14T19:32:41.633Z,101067.31
2022-08-14T19:37:46.781Z,101059.94
2022-08-14T19:42:58.330Z,101046.66
2022-08-14T19:48:03.330Z,101039.81
2022-08-14T19:53:16.767Z,101037.69
2022-08-14T19:58:55.136Z,101031.38
2022-08-14T20:04:02.788Z,101023.91
2022-08-14T20:14:29.587Z,101016.75
2022-08-14T20:24:54.093Z,101000.16
2022-08-14T20:30:36.482Z,100989.19
2022-08-14T20:35:46.904Z,100992.28
2022-08-14T20:40:58.868Z,100990.34
2022-08-14T20:46:11.524Z,100987.62
2022-08-14T20:51:26.258Z,100981.00
2022-08-14T20:56:50.119Z,100964.06
2022-08-14T21:02:28.611Z,100956.09
2022-08-14T21:07:37.297Z,100953.06
2022-08-14T21:13:25.649Z,100947.31
2022-08-14T21:18:10.614Z,100953.78
2022-08-14T21:23:20.691Z,100940.78
2022-08-14T21:28:30.399Z,100938.87
2022-08-14T21:33:45.116Z,100933.06
2022-08-14T21:38:50.858Z,100926.44
2022-08-14T21:43:59.514Z,100922.91
2022-08-14T21:49:16.132Z,100911.00
2022-08-14T21:54:32.299Z,100898.25
2022-08-14T21:59:44.752Z,100893.34
2022-08-14T22:04:54.296Z,100884.22
2022-08-14T22:10:00.414Z,100874.25
2022-08-14T22:15:07.364Z,100870.06
2022-08-14T22:20:21.471Z,100852.56
2022-08-14T22:25:34.049Z,100855.91
2022-08-14T22:30:39.510Z,100836.72
2022-08-14T22:35:56.155Z,100830.06
2022-08-14T22:41:28.036Z,100828.38
2022-08-14T22:46:24.300Z,100829.00
2022-08-14T22:51:40.712Z,100825.97
2022-08-14T22:56:59.034Z,100818.22
2022-08-14T23:02:06.226Z,100814.66
2022-08-14T23:07:23.348Z,100808.59
2022-08-14T23:17:47.598Z,100839.16
2022-08-14T23:22:53.978Z,100834.31
2022-08-14T23:28:03.178Z,100840.75
2022-08-14T23:33:16.353Z,100833.00
2022-08-14T23:43:41.888Z,100821.22
2022-08-14T23:48:47.214Z,100807.16
2022-08-14T23:53:54.753Z,100804.66
2022-08-14T23:59:04.034Z,100809.16
